Time;durP1;ratioP1;P1;durP2;ratioP2;P2;SDS_P1;SDS_P2;PMS_P1;PMS_P2;Temp;Humidity;BMP_temperature;BMP_pressure;BME280_temperature;BME280_humidity;BME280_pressure;Samples;Min_cycle;Max_cycle;Signal;HPM_P1;HPM_P2
2022/12/24 00:02:04;;;;;;;30.40;4.03;;;;;;;;;;5007120;28;20033;-75
2022/12/24 00:04:30;;;;;;;26.10;4.07;;;;;;;;;;5007601;28;20108;-76
2022/12/24 00:06:56;;;;;;;23.30;4.77;;;;;;;;;;5020267;28;20037;-77
2022/12/24 00:09:22;;;;;;;26.43;5.13;;;;;;;;;;5020117;28;20673;-77
2022/12/24 00:11:48;;;;;;;34.37;5.53;;;;;;;;;;5007402;28;20029;-75
2022/12/24 00:14:14;;;;;;;35.70;6.17;;;;;;;;;;5006275;28;20648;-75
2022/12/24 00:16:40;;;;;;;32.30;4.80;;;;;;;;;;5006050;28;20038;-77
2022/12/24 00:19:06;;;;;;;30.63;5.80;;;;;;;;;;5004611;28;20469;-75
2022/12/24 00:21:35;;;;;;;26.70;4.83;;;;;;;;;;5007084;28;20049;-76
2022/12/24 00:24:03;;;;;;;22.73;5.50;;;;;;;;;;5006368;28;20033;-76
2022/12/24 00:26:29;;;;;;;21.13;4.40;;;;;;;;;;5006544;28;20037;-77
2022/12/24 00:28:57;;;;;;;35.40;5.63;;;;;;;;;;5021586;28;20095;-76
2022/12/24 00:31:23;;;;;;;31.80;5.63;;;;;;;;;;5020399;28;20084;-76
2022/12/24 00:33:49;;;;;;;20.53;4.13;;;;;;;;;;5005039;28;20517;-75
2022/12/24 00:36:15;;;;;;;23.80;5.47;;;;;;;;;;5023401;28;20049;-77
2022/12/24 00:38:41;;;;;;;32.60;5.50;;;;;;;;;;5007617;28;20167;-77
2022/12/24 00:41:23;;;;;;;28.87;5.20;;;;;;;;;;5023621;28;20505;-75
2022/12/24 00:43:49;;;;;;;29.33;5.37;;;;;;;;;;5007256;28;20057;-76
2022/12/24 00:46:15;;;;;;;28.50;4.37;;;;;;;;;;5023915;28;20025;-77
2022/12/24 00:48:41;;;;;;;38.40;7.03;;;;;;;;;;5023368;28;20026;-75
2022/12/24 00:51:07;;;;;;;34.33;5.73;;;;;;;;;;5004845;28;20040;-77
2022/12/24 00:53:33;;;;;;;32.57;4.60;;;;;;;;;;5021638;28;20381;-77
2022/12/24 00:55:59;;;;;;;26.30;4.77;;;;;;;;;;5025639;28;20379;-76
2022/12/24 00:58:25;;;;;;;30.23;5.03;;;;;;;;;;5027447;28;20059;-77
2022/12/24 01:00:51;;;;;;;31.73;5.10;;;;;;;;;;5006504;28;20040;-76
2022/12/24 01:03:17;;;;;;;32.00;6.13;;;;;;;;;;5008445;28;20049;-74
2022/12/24 01:05:43;;;;;;;35.83;5.10;;;;;;;;;;5006999;28;20695;-77
2022/12/24 01:08:09;;;;;;;24.07;4.73;;;;;;;;;;5006156;28;20040;-76
2022/12/24 01:10:35;;;;;;;28.37;4.87;;;;;;;;;;5022079;28;20017;-74
2022/12/24 01:13:04;;;;;;;27.57;5.07;;;;;;;;;;5020804;28;20134;-76
2022/12/24 01:15:30;;;;;;;34.23;5.80;;;;;;;;;;5011979;28;20102;-75
2022/12/24 01:17:57;;;;;;;27.70;5.03;;;;;;;;;;5035547;28;20041;-77
2022/12/24 01:20:25;;;;;;;36.07;5.77;;;;;;;;;;5012744;28;20117;-75
2022/12/24 01:22:52;;;;;;;27.77;4.70;;;;;;;;;;5030933;28;20026;-76
2022/12/24 01:25:20;;;;;;;23.37;4.70;;;;;;;;;;5015970;28;20041;-77
2022/12/24 01:27:46;;;;;;;28.80;4.90;;;;;;;;;;5011509;28;20026;-77
2022/12/24 01:30:16;;;;;;;29.00;4.00;;;;;;;;;;5010397;28;20040;-77
2022/12/24 01:32:42;;;;;;;26.47;4.10;;;;;;;;;;5019166;28;20025;-76
2022/12/24 01:35:11;;;;;;;28.13;4.87;;;;;;;;;;5036834;28;20029;-77
2022/12/24 01:37:37;;;;;;;30.00;5.93;;;;;;;;;;5036637;28;20040;-75
2022/12/24 01:45:37;;;;;;;28.87;4.13;;;;;;;;;;5028247;28;20425;-74
2022/12/24 01:48:04;;;;;;;27.73;4.27;;;;;;;;;;5037674;28;20032;-77
2022/12/24 01:50:30;;;;;;;28.43;5.50;;;;;;;;;;5031077;28;20029;-76
2022/12/24 01:52:57;;;;;;;23.83;4.03;;;;;;;;;;5036644;28;20022;-76
2022/12/24 01:55:23;;;;;;;29.97;5.67;;;;;;;;;;5019173;28;20025;-77
2022/12/24 01:57:52;;;;;;;34.20;4.90;;;;;;;;;;5017531;28;20183;-76
2022/12/24 02:00:19;;;;;;;29.73;5.57;;;;;;;;;;5036528;28;20053;-75
2022/12/24 02:02:47;;;;;;;25.87;4.30;;;;;;;;;;5019082;28;20120;-77
2022/12/24 02:05:21;;;;;;;25.63;4.07;;;;;;;;;;5018908;28;20036;-76
2022/12/24 02:07:48;;;;;;;34.07;5.67;;;;;;;;;;5012035;28;20045;-76
2022/12/24 02:10:14;;;;;;;28.20;4.60;;;;;;;;;;5036154;28;20028;-76
2022/12/24 02:12:41;;;;;;;22.97;3.80;;;;;;;;;;5019346;28;20033;-76
2022/12/24 02:15:09;;;;;;;33.97;5.60;;;;;;;;;;5036327;28;20033;-75
2022/12/24 02:17:47;;;;;;;32.17;4.47;;;;;;;;;;5018670;28;20060;-76
2022/12/24 02:20:22;;;;;;;20.70;3.80;;;;;;;;;;5019208;28;20056;-76
2022/12/24 02:23:00;;;;;;;32.23;4.70;;;;;;;;;;5006217;28;20049;-75
2022/12/24 02:25:26;;;;;;;24.87;4.10;;;;;;;;;;5018958;28;20043;-76
2022/12/24 02:28:13;;;;;;;33.63;5.33;;;;;;;;;;5018136;28;20055;-75
2022/12/24 02:30:43;;;;;;;23.33;4.80;;;;;;;;;;5036919;28;20025;-77
2022/12/24 02:33:20;;;;;;;29.50;4.83;;;;;;;;;;5036288;28;20033;-76
2022/12/24 02:35:46;;;;;;;33.23;5.63;;;;;;;;;;5017854;28;20033;-76
2022/12/24 02:38:12;;;;;;;31.23;5.53;;;;;;;;;;5029916;28;20484;-77
2022/12/24 02:40:40;;;;;;;26.03;4.43;;;;;;;;;;5009326;28;20021;-76
2022/12/24 02:43:12;;;;;;;26.77;3.90;;;;;;;;;;5035688;28;20473;-76
2022/12/24 02:45:40;;;;;;;37.17;5.27;;;;;;;;;;5035590;28;20037;-76
2022/12/24 02:48:06;;;;;;;25.33;5.20;;;;;;;;;;5018995;28;20272;-77
2022/12/24 02:50:32;;;;;;;25.43;5.43;;;;;;;;;;5035456;28;20568;-75
2022/12/24 02:52:58;;;;;;;46.23;5.20;;;;;;;;;;5033725;28;20454;-76
2022/12/24 02:55:34;;;;;;;27.10;4.87;;;;;;;;;;5014535;28;20040;-76
2022/12/24 02:58:23;;;;;;;25.00;4.97;;;;;;;;;;5030424;28;20043;-76
2022/12/24 03:00:57;;;;;;;26.90;5.20;;;;;;;;;;5013161;28;20045;-76
2022/12/24 03:03:38;;;;;;;26.13;5.40;;;;;;;;;;5022733;28;20091;-75
2022/12/24 03:06:11;;;;;;;26.90;4.57;;;;;;;;;;5019968;28;20430;-76
2022/12/24 03:08:48;;;;;;;21.37;3.83;;;;;;;;;;5020597;28;20013;-77
2022/12/24 03:11:15;;;;;;;27.20;4.70;;;;;;;;;;5018034;28;20116;-76
2022/12/24 03:13:43;;;;;;;22.90;3.93;;;;;;;;;;5031653;28;20067;-77
2022/12/24 03:16:17;;;;;;;23.80;3.40;;;;;;;;;;5045344;28;20059;-76
2022/12/24 03:18:45;;;;;;;18.23;3.50;;;;;;;;;;5019439;28;20040;-77
2022/12/24 03:21:14;;;;;;;19.93;3.07;;;;;;;;;;5017448;28;20060;-77
2022/12/24 03:23:42;;;;;;;17.40;3.23;;;;;;;;;;5028772;28;20041;-77
2022/12/24 03:26:10;;;;;;;23.40;4.40;;;;;;;;;;5005788;28;20029;-76
2022/12/24 03:28:37;;;;;;;13.00;2.47;;;;;;;;;;5015103;28;20092;-76
2022/12/24 03:31:04;;;;;;;11.37;3.00;;;;;;;;;;5035025;28;20052;-75
2022/12/24 03:33:30;;;;;;;19.03;3.33;;;;;;;;;;5017162;28;20033;-77
2022/12/24 03:35:57;;;;;;;14.17;2.97;;;;;;;;;;5017406;28;20316;-77
2022/12/24 03:38:23;;;;;;;12.67;2.60;;;;;;;;;;5017395;28;20037;-77
2022/12/24 03:40:49;;;;;;;10.77;2.50;;;;;;;;;;5031203;28;20029;-76
2022/12/24 03:43:15;;;;;;;16.10;3.33;;;;;;;;;;5018166;28;20033;-77
2022/12/24 03:45:43;;;;;;;17.00;2.77;;;;;;;;;;5021703;28;20091;-76
2022/12/24 03:48:09;;;;;;;16.97;3.00;;;;;;;;;;5017037;28;20025;-77
2022/12/24 03:50:35;;;;;;;15.77;2.50;;;;;;;;;;5017407;28;20040;-77
2022/12/24 03:53:01;;;;;;;15.67;2.77;;;;;;;;;;5016190;28;20342;-77
2022/12/24 03:55:27;;;;;;;21.77;3.17;;;;;;;;;;5017234;28;20030;-77
2022/12/24 03:57:53;;;;;;;20.53;3.90;;;;;;;;;;5031002;28;20052;-77
2022/12/24 04:00:19;;;;;;;13.53;2.60;;;;;;;;;;5012290;28;20338;-77
2022/12/24 04:02:50;;;;;;;15.53;2.30;;;;;;;;;;5028164;28;20426;-77
2022/12/24 04:05:19;;;;;;;15.87;2.57;;;;;;;;;;5017347;28;20026;-78
2022/12/24 04:07:46;;;;;;;8.77;1.93;;;;;;;;;;5017119;28;20434;-76
2022/12/24 04:10:12;;;;;;;14.63;2.37;;;;;;;;;;5020058;28;20025;-77
2022/12/24 04:12:38;;;;;;;15.80;2.43;;;;;;;;;;5017045;28;20053;-76
2022/12/24 04:15:05;;;;;;;12.80;2.40;;;;;;;;;;5016715;28;20095;-76
2022/12/24 04:17:34;;;;;;;17.67;2.77;;;;;;;;;;5017233;28;20055;-77
2022/12/24 04:20:00;;;;;;;13.57;2.00;;;;;;;;;;5016657;28;20060;-77
2022/12/24 04:22:26;;;;;;;15.43;2.33;;;;;;;;;;5028169;28;20034;-77
2022/12/24 04:24:54;;;;;;;9.03;1.90;;;;;;;;;;5016891;28;20025;-76
2022/12/24 04:27:20;;;;;;;12.93;2.00;;;;;;;;;;5036611;28;20039;-77
2022/12/24 04:29:49;;;;;;;14.40;2.87;;;;;;;;;;5036060;28;20104;-77
2022/12/24 04:32:15;;;;;;;15.00;2.30;;;;;;;;;;5033903;28;20433;-77
2022/12/24 04:34:41;;;;;;;15.23;1.90;;;;;;;;;;5025043;28;20033;-77
2022/12/24 04:37:07;;;;;;;11.67;2.00;;;;;;;;;;5017387;28;20025;-77
2022/12/24 04:39:33;;;;;;;15.97;2.30;;;;;;;;;;5034116;28;20021;-77
2022/12/24 04:41:59;;;;;;;9.50;2.00;;;;;;;;;;5034013;28;20022;-77
2022/12/24 04:44:25;;;;;;;11.47;2.50;;;;;;;;;;5034380;28;20022;-77
2022/12/24 04:46:51;;;;;;;14.33;2.50;;;;;;;;;;5016655;28;20565;-77
2022/12/24 04:49:17;;;;;;;17.00;3.33;;;;;;;;;;5016477;28;20037;-77
2022/12/24 04:51:43;;;;;;;14.27;2.37;;;;;;;;;;5016423;28;20026;-77
2022/12/24 04:54:09;;;;;;;15.80;3.67;;;;;;;;;;5033912;28;20017;-75
2022/12/24 04:56:36;;;;;;;14.93;3.43;;;;;;;;;;5016668;28;20052;-77
2022/12/24 04:59:02;;;;;;;11.83;2.80;;;;;;;;;;5016456;28;20064;-77
2022/12/24 05:01:29;;;;;;;21.57;4.53;;;;;;;;;;5020262;28;20509;-78
2022/12/24 05:03:56;;;;;;;13.47;2.30;;;;;;;;;;5034358;28;20033;-76
2022/12/24 05:06:24;;;;;;;10.33;2.33;;;;;;;;;;5022827;28;20122;-78
2022/12/24 05:08:50;;;;;;;14.70;2.67;;;;;;;;;;5031291;28;20346;-77
2022/12/24 05:11:16;;;;;;;13.90;2.87;;;;;;;;;;5037816;28;20017;-77
2022/12/24 05:13:43;;;;;;;12.00;2.20;;;;;;;;;;5020205;28;20024;-77
2022/12/24 05:16:09;;;;;;;14.10;3.40;;;;;;;;;;5011014;28;20279;-76
2022/12/24 05:18:37;;;;;;;13.87;2.37;;;;;;;;;;5013247;28;20477;-76
2022/12/24 05:21:03;;;;;;;8.87;1.97;;;;;;;;;;5012983;28;20029;-76
2022/12/24 05:26:34;;;;;;;17.13;2.97;;;;;;;;;;5028898;28;20052;-77
2022/12/24 05:29:00;;;;;;;11.90;1.90;;;;;;;;;;5010918;28;20041;-77
2022/12/24 05:31:27;;;;;;;11.03;2.37;;;;;;;;;;5026965;28;20033;-77
2022/12/24 05:33:54;;;;;;;14.77;2.53;;;;;;;;;;5009909;28;20037;-77
2022/12/24 05:36:20;;;;;;;6.20;1.70;;;;;;;;;;5008289;28;20033;-76
2022/12/24 05:38:46;;;;;;;14.57;2.37;;;;;;;;;;5011434;28;20074;-76
2022/12/24 05:41:13;;;;;;;10.53;2.43;;;;;;;;;;5012407;28;20029;-77
2022/12/24 05:43:39;;;;;;;13.00;2.77;;;;;;;;;;5029700;28;20044;-76
2022/12/24 05:46:07;;;;;;;18.93;3.57;;;;;;;;;;5026773;28;20033;-76
2022/12/24 05:48:36;;;;;;;19.97;3.20;;;;;;;;;;5016087;28;20052;-76
2022/12/24 05:51:06;;;;;;;18.07;3.00;;;;;;;;;;5025050;28;20040;-77
2022/12/24 05:53:32;;;;;;;20.10;3.10;;;;;;;;;;5010945;28;20124;-77
2022/12/24 05:56:06;;;;;;;19.17;3.93;;;;;;;;;;5009401;28;20068;-77
2022/12/24 05:58:32;;;;;;;22.23;4.13;;;;;;;;;;5010522;28;20442;-76
2022/12/24 06:01:02;;;;;;;16.50;3.37;;;;;;;;;;5024733;28;20107;-77
2022/12/24 06:03:29;;;;;;;21.60;4.27;;;;;;;;;;5026754;28;20033;-77
2022/12/24 06:06:18;;;;;;;23.83;4.37;;;;;;;;;;5008930;28;20029;-77
2022/12/24 06:08:44;;;;;;;22.60;3.43;;;;;;;;;;5024722;28;20044;-77
2022/12/24 06:11:11;;;;;;;20.97;4.30;;;;;;;;;;5009995;28;20056;-78
2022/12/24 06:13:38;;;;;;;24.37;4.27;;;;;;;;;;5026758;28;20052;-77
2022/12/24 06:16:05;;;;;;;23.00;4.33;;;;;;;;;;5008805;28;20248;-77
2022/12/24 06:18:32;;;;;;;30.20;5.00;;;;;;;;;;5025808;28;20037;-77
2022/12/24 06:20:58;;;;;;;26.50;5.03;;;;;;;;;;5024766;28;20038;-76
2022/12/24 06:23:25;;;;;;;21.20;4.23;;;;;;;;;;5006638;28;20056;-76
2022/12/24 06:25:51;;;;;;;35.10;6.07;;;;;;;;;;5009677;28;20156;-77
2022/12/24 06:28:17;;;;;;;25.30;4.97;;;;;;;;;;5010147;28;20041;-77
2022/12/24 06:30:47;;;;;;;28.33;5.53;;;;;;;;;;5010481;28;20025;-76
2022/12/24 06:33:13;;;;;;;29.83;6.63;;;;;;;;;;5010894;28;20034;-77
2022/12/24 06:35:40;;;;;;;29.67;4.87;;;;;;;;;;5023029;28;20048;-77
2022/12/24 06:38:06;;;;;;;35.43;6.00;;;;;;;;;;5025459;28;20030;-77
2022/12/24 06:40:32;;;;;;;24.07;5.10;;;;;;;;;;5009322;28;20136;-77
2022/12/24 06:42:58;;;;;;;33.07;5.93;;;;;;;;;;5011429;28;20038;-76
2022/12/24 06:45:24;;;;;;;31.27;5.47;;;;;;;;;;5012147;28;20021;-76
2022/12/24 06:47:50;;;;;;;29.60;5.23;;;;;;;;;;5027736;28;20044;-76
2022/12/24 06:50:16;;;;;;;35.53;5.80;;;;;;;;;;5012312;28;20030;-76
2022/12/24 06:52:42;;;;;;;35.80;6.10;;;;;;;;;;5009410;28;20037;-76
2022/12/24 06:55:09;;;;;;;26.90;5.03;;;;;;;;;;5011061;28;20040;-77
2022/12/24 06:57:35;;;;;;;44.17;6.13;;;;;;;;;;5011202;28;20123;-75
2022/12/24 07:00:01;;;;;;;38.70;5.47;;;;;;;;;;5010707;28;20172;-76
2022/12/24 07:02:27;;;;;;;35.40;6.63;;;;;;;;;;5026229;28;20059;-76
2022/12/24 07:04:53;;;;;;;39.20;7.03;;;;;;;;;;5011645;28;20443;-77
2022/12/24 07:07:19;;;;;;;39.57;6.33;;;;;;;;;;5011025;28;20034;-77
2022/12/24 07:09:46;;;;;;;37.03;6.50;;;;;;;;;;5027785;28;20025;-76
2022/12/24 07:12:14;;;;;;;35.03;6.40;;;;;;;;;;5027916;28;20032;-77
2022/12/24 07:14:43;;;;;;;26.67;4.77;;;;;;;;;;5027170;28;20028;-77
2022/12/24 07:17:12;;;;;;;29.63;5.70;;;;;;;;;;5015909;28;20025;-77
2022/12/24 07:19:43;;;;;;;23.07;5.80;;;;;;;;;;5015604;28;20029;-76
2022/12/24 07:22:09;;;;;;;38.00;7.60;;;;;;;;;;5014796;28;20037;-77
2022/12/24 07:24:35;;;;;;;30.10;5.27;;;;;;;;;;5034073;28;20026;-77
2022/12/24 07:27:01;;;;;;;32.73;6.03;;;;;;;;;;5022546;28;20041;-77
2022/12/24 07:29:27;;;;;;;31.67;5.40;;;;;;;;;;5018845;28;20454;-77
2022/12/24 07:31:55;;;;;;;27.77;5.60;;;;;;;;;;5018024;28;20053;-77
2022/12/24 07:34:24;;;;;;;26.13;4.73;;;;;;;;;;5028644;28;20033;-77
2022/12/24 07:36:52;;;;;;;38.13;6.60;;;;;;;;;;5019032;28;20501;-78
2022/12/24 07:39:18;;;;;;;34.60;7.27;;;;;;;;;;5038686;28;20025;-77
2022/12/24 07:41:44;;;;;;;31.10;4.93;;;;;;;;;;5017333;28;20087;-78
2022/12/24 07:44:13;;;;;;;40.83;6.87;;;;;;;;;;5019415;28;20033;-78
2022/12/24 07:46:39;;;;;;;28.20;4.97;;;;;;;;;;5034881;28;20032;-77
2022/12/24 07:49:05;;;;;;;28.60;5.37;;;;;;;;;;5027250;28;20315;-77
2022/12/24 07:51:34;;;;;;;27.73;5.67;;;;;;;;;;5017707;28;20077;-76
2022/12/24 07:54:00;;;;;;;34.13;5.90;;;;;;;;;;5017648;28;20032;-76
2022/12/24 07:56:26;;;;;;;36.73;6.47;;;;;;;;;;5017380;28;20048;-77
2022/12/24 07:58:52;;;;;;;23.27;6.03;;;;;;;;;;5034689;28;20021;-77
2022/12/24 08:01:18;;;;;;;27.17;6.30;;;;;;;;;;5020035;28;20453;-78
2022/12/24 08:03:44;;;;;;;31.97;5.90;;;;;;;;;;5021074;28;20051;-77
2022/12/24 08:06:10;;;;;;;35.03;6.83;;;;;;;;;;5016848;28;20068;-77
2022/12/24 08:08:37;;;;;;;29.97;5.73;;;;;;;;;;5017488;28;20083;-77
2022/12/24 08:11:04;;;;;;;21.90;5.10;;;;;;;;;;5020420;28;20033;-77
2022/12/24 08:13:33;;;;;;;31.27;5.53;;;;;;;;;;5017605;28;20608;-77
2022/12/24 08:15:59;;;;;;;24.60;5.20;;;;;;;;;;5017066;28;20037;-77
2022/12/24 08:18:25;;;;;;;33.43;6.03;;;;;;;;;;5045975;28;20041;-77
2022/12/24 08:20:51;;;;;;;34.70;6.73;;;;;;;;;;5023856;28;20040;-76
2022/12/24 08:23:19;;;;;;;30.70;4.87;;;;;;;;;;5038474;28;20067;-76
2022/12/24 08:25:46;;;;;;;31.73;6.03;;;;;;;;;;5025005;28;20029;-77
2022/12/24 08:28:14;;;;;;;37.83;5.70;;;;;;;;;;5045082;28;20021;-75
2022/12/24 08:30:40;;;;;;;26.80;6.13;;;;;;;;;;5043503;28;20503;-77
2022/12/24 08:33:06;;;;;;;33.63;6.90;;;;;;;;;;5021330;28;20461;-77
2022/12/24 08:35:34;;;;;;;28.17;5.60;;;;;;;;;;5017176;28;20026;-77
2022/12/24 08:38:00;;;;;;;33.97;5.70;;;;;;;;;;5034227;28;20041;-77
2022/12/24 08:40:26;;;;;;;30.67;6.23;;;;;;;;;;5024862;28;20025;-77
2022/12/24 08:42:52;;;;;;;23.97;5.17;;;;;;;;;;5022065;28;20029;-77
2022/12/24 08:45:19;;;;;;;32.57;6.43;;;;;;;;;;5021496;28;20064;-76
2022/12/24 08:47:45;;;;;;;33.47;5.13;;;;;;;;;;5016319;28;20026;-77
2022/12/24 08:50:11;;;;;;;35.20;6.43;;;;;;;;;;5016767;28;20029;-77
2022/12/24 08:52:40;;;;;;;40.40;6.57;;;;;;;;;;5033599;28;20017;-76
2022/12/24 08:55:06;;;;;;;31.33;5.17;;;;;;;;;;5033570;28;20036;-78
2022/12/24 08:57:35;;;;;;;42.60;6.80;;;;;;;;;;5047721;28;20104;-77
2022/12/24 09:00:01;;;;;;;31.10;6.37;;;;;;;;;;5020273;28;20114;-75
2022/12/24 09:02:27;;;;;;;31.13;5.30;;;;;;;;;;5016494;28;20445;-77
2022/12/24 09:04:53;;;;;;;35.57;6.57;;;;;;;;;;5016771;28;20025;-77
2022/12/24 09:07:19;;;;;;;26.47;6.10;;;;;;;;;;5016719;28;20029;-76
2022/12/24 09:09:45;;;;;;;33.47;5.83;;;;;;;;;;5019228;28;20037;-77
2022/12/24 09:12:11;;;;;;;32.23;6.93;;;;;;;;;;5026380;28;20029;-76
2022/12/24 09:14:37;;;;;;;30.67;6.13;;;;;;;;;;5017618;28;20125;-78
2022/12/24 09:17:03;;;;;;;28.33;5.53;;;;;;;;;;5020010;28;20025;-77
2022/12/24 09:19:29;;;;;;;39.63;7.13;;;;;;;;;;5018957;28;20040;-76
2022/12/24 09:21:58;;;;;;;32.30;6.27;;;;;;;;;;5020195;28;20064;-76
2022/12/24 09:24:26;;;;;;;33.30;6.20;;;;;;;;;;5018157;28;20045;-77
2022/12/24 09:26:53;;;;;;;30.60;5.00;;;;;;;;;;5020771;28;20516;-76
2022/12/24 09:29:19;;;;;;;42.43;6.30;;;;;;;;;;5017442;28;20033;-77
2022/12/24 09:31:45;;;;;;;29.50;6.77;;;;;;;;;;5028714;28;20083;-77
2022/12/24 09:34:11;;;;;;;34.07;5.90;;;;;;;;;;5034415;28;20025;-77
2022/12/24 09:36:37;;;;;;;31.10;5.83;;;;;;;;;;5028620;28;20437;-77
2022/12/24 09:39:03;;;;;;;27.97;5.97;;;;;;;;;;5013681;28;20041;-77
2022/12/24 09:41:29;;;;;;;31.80;6.23;;;;;;;;;;5018093;28;20029;-77
2022/12/24 09:44:00;;;;;;;48.93;6.33;;;;;;;;;;5021693;28;20103;-77
2022/12/24 09:46:31;;;;;;;35.33;6.03;;;;;;;;;;5006636;28;20029;-78
2022/12/24 09:49:01;;;;;;;32.37;5.67;;;;;;;;;;5020369;28;20049;-77
2022/12/24 09:51:27;;;;;;;33.47;6.70;;;;;;;;;;5022138;28;20021;-77
2022/12/24 09:53:56;;;;;;;35.67;6.43;;;;;;;;;;5022437;28;20103;-77
2022/12/24 09:56:27;;;;;;;33.13;5.60;;;;;;;;;;5038085;28;20033;-77
2022/12/24 09:58:58;;;;;;;27.87;6.63;;;;;;;;;;5037767;28;20438;-78
2022/12/24 10:01:24;;;;;;;33.23;6.13;;;;;;;;;;5022443;28;20083;-77
2022/12/24 10:03:53;;;;;;;34.00;6.23;;;;;;;;;;5037707;28;20080;-77
2022/12/24 10:06:32;;;;;;;28.23;5.37;;;;;;;;;;5020022;28;20030;-77
2022/12/24 10:09:13;;;;;;;29.07;5.27;;;;;;;;;;5024792;28;20374;-77
2022/12/24 10:11:43;;;;;;;37.63;6.70;;;;;;;;;;5019860;28;20505;-78
2022/12/24 10:14:21;;;;;;;29.47;5.43;;;;;;;;;;5037178;28;20419;-77
2022/12/24 10:16:56;;;;;;;36.37;6.97;;;;;;;;;;5019482;28;20048;-78
2022/12/24 10:19:28;;;;;;;37.20;6.70;;;;;;;;;;5037370;28;20053;-77
2022/12/24 10:22:13;;;;;;;28.25;6.82;;;;;;;;;;5019467;28;20021;-77
2022/12/24 10:24:54;;;;;;;39.40;6.93;;;;;;;;;;5012686;28;20037;-77
2022/12/24 10:27:24;;;;;;;39.57;7.07;;;;;;;;;;5039767;28;20021;-77
2022/12/24 10:29:57;;;;;;;35.27;7.17;;;;;;;;;;5020150;28;20029;-78
2022/12/24 10:32:31;;;;;;;35.77;7.13;;;;;;;;;;5033381;28;20183;-77
2022/12/24 10:35:01;;;;;;;35.47;6.83;;;;;;;;;;5019291;28;20037;-77
2022/12/24 10:37:28;;;;;;;34.60;7.00;;;;;;;;;;5022352;28;20022;-77
2022/12/24 10:39:58;;;;;;;39.37;6.63;;;;;;;;;;5036699;28;20446;-77
2022/12/24 10:42:26;;;;;;;27.03;5.93;;;;;;;;;;5019068;28;20037;-77
2022/12/24 10:44:56;;;;;;;33.57;6.43;;;;;;;;;;5036543;28;20452;-77
2022/12/24 10:47:22;;;;;;;35.63;5.73;;;;;;;;;;5043414;28;20104;-76
2022/12/24 10:49:52;;;;;;;35.63;7.03;;;;;;;;;;5036373;28;20033;-77
2022/12/24 10:52:21;;;;;;;45.03;6.57;;;;;;;;;;5020334;28;20025;-77
2022/12/24 10:55:08;;;;;;;34.67;6.67;;;;;;;;;;5019865;28;20052;-75
2022/12/24 10:57:34;;;;;;;39.80;7.00;;;;;;;;;;5036383;28;20025;-76
2022/12/24 11:00:05;;;;;;;32.63;5.83;;;;;;;;;;5018852;28;20021;-77
2022/12/24 11:02:35;;;;;;;37.87;6.43;;;;;;;;;;5021828;28;20142;-77
2022/12/24 11:05:03;;;;;;;32.03;7.43;;;;;;;;;;5026022;28;20035;-76
2022/12/24 11:07:30;;;;;;;37.17;6.23;;;;;;;;;;5045579;28;20017;-77
2022/12/24 11:09:56;;;;;;;33.60;6.47;;;;;;;;;;5018608;28;20025;-76
2022/12/24 11:12:23;;;;;;;33.10;6.37;;;;;;;;;;5035813;28;20045;-77
2022/12/24 11:14:58;;;;;;;25.33;5.90;;;;;;;;;;5016463;28;20071;-76
2022/12/24 11:17:24;;;;;;;38.97;6.50;;;;;;;;;;5023104;28;20425;-77
2022/12/24 11:19:50;;;;;;;32.77;7.23;;;;;;;;;;5026653;28;20033;-76
2022/12/24 11:22:18;;;;;;;28.20;5.20;;;;;;;;;;5011045;28;20040;-75
2022/12/24 11:24:44;;;;;;;41.03;6.50;;;;;;;;;;5026906;28;20139;-77
2022/12/24 11:27:26;;;;;;;28.87;5.40;;;;;;;;;;5007721;28;20056;-76
2022/12/24 11:29:54;;;;;;;32.77;5.83;;;;;;;;;;5028227;28;20030;-77
2022/12/24 11:32:21;;;;;;;33.70;5.33;;;;;;;;;;5025930;28;20029;-75
2022/12/24 11:34:49;;;;;;;32.23;5.13;;;;;;;;;;5009200;28;20037;-77
2022/12/24 11:37:21;;;;;;;32.60;6.60;;;;;;;;;;5030807;28;20029;-76
2022/12/24 11:39:49;;;;;;;29.70;5.80;;;;;;;;;;5026809;28;20033;-77
2022/12/24 11:42:28;;;;;;;32.17;5.67;;;;;;;;;;5010041;28;20039;-76
2022/12/24 11:44:55;;;;;;;32.67;5.63;;;;;;;;;;5010452;28;20029;-77
2022/12/24 11:47:31;;;;;;;32.67;6.80;;;;;;;;;;5024665;28;20425;-76
2022/12/24 11:50:17;;;;;;;44.00;6.67;;;;;;;;;;5005698;28;20116;-77
2022/12/24 11:52:45;;;;;;;37.33;5.00;;;;;;;;;;5007632;28;20068;-77
2022/12/24 11:55:11;;;;;;;30.80;5.23;;;;;;;;;;5007564;28;20033;-76
2022/12/24 11:57:48;;;;;;;35.23;5.43;;;;;;;;;;5010821;28;20464;-77
2022/12/24 12:00:14;;;;;;;25.97;5.60;;;;;;;;;;5027582;28;20083;-77
2022/12/24 12:02:42;;;;;;;30.70;6.67;;;;;;;;;;5012393;28;20067;-75
2022/12/24 12:05:14;;;;;;;36.27;6.27;;;;;;;;;;5024299;28;20025;-76
2022/12/24 12:07:42;;;;;;;32.65;5.13;;;;;;;;;;5009310;28;20075;-77
2022/12/24 12:10:08;;;;;;;29.60;5.07;;;;;;;;;;5024557;28;20037;-76
2022/12/24 12:12:35;;;;;;;34.20;6.50;;;;;;;;;;5021724;28;20550;-75
2022/12/24 12:15:12;;;;;;;35.77;5.77;;;;;;;;;;5005986;28;20914;-76
2022/12/24 12:17:38;;;;;;;34.67;6.37;;;;;;;;;;5023142;28;20039;-77
2022/12/24 12:20:12;;;;;;;39.90;6.00;;;;;;;;;;5007470;28;20029;-76
2022/12/24 12:22:45;;;;;;;32.63;5.90;;;;;;;;;;5005377;28;20034;-77
2022/12/24 12:25:18;;;;;;;28.97;5.27;;;;;;;;;;5009381;28;20037;-76
2022/12/24 12:27:47;;;;;;;32.57;5.70;;;;;;;;;;5009294;28;20037;-76
2022/12/24 12:30:17;;;;;;;40.30;7.57;;;;;;;;;;5006849;28;20364;-75
2022/12/24 12:32:53;;;;;;;32.87;5.63;;;;;;;;;;5012111;28;20045;-77
2022/12/24 12:35:31;;;;;;;29.87;5.00;;;;;;;;;;5028913;28;20108;-76
2022/12/24 12:38:00;;;;;;;29.87;5.97;;;;;;;;;;5010505;28;20025;-77
2022/12/24 12:40:32;;;;;;;34.10;6.23;;;;;;;;;;5029597;28;20024;-77
2022/12/24 12:43:06;;;;;;;27.45;5.57;;;;;;;;;;5009797;28;20037;-76
2022/12/24 12:45:36;;;;;;;34.37;5.20;;;;;;;;;;5029715;28;20029;-76
2022/12/24 12:48:20;;;;;;;32.23;5.63;;;;;;;;;;5007243;28;20026;-76
2022/12/24 12:50:55;;;;;;;28.43;6.17;;;;;;;;;;5009721;28;20064;-75
2022/12/24 12:53:31;;;;;;;30.20;6.87;;;;;;;;;;5012029;28;20693;-77
2022/12/24 12:55:57;;;;;;;27.43;5.50;;;;;;;;;;5009294;28;20029;-76
2022/12/24 12:58:27;;;;;;;25.27;5.00;;;;;;;;;;5022609;28;20050;-76
2022/12/24 13:00:58;;;;;;;29.20;5.13;;;;;;;;;;5024296;28;20022;-76
2022/12/24 13:03:32;;;;;;;23.07;4.50;;;;;;;;;;5021385;28;20033;-77
2022/12/24 13:06:13;;;;;;;21.53;4.37;;;;;;;;;;5007611;28;20041;-76
2022/12/24 13:08:59;;;;;;;26.93;5.50;;;;;;;;;;5008408;28;20033;-75
2022/12/24 13:11:39;;;;;;;30.33;5.57;;;;;;;;;;5007842;28;20103;-76
2022/12/24 13:14:26;;;;;;;29.53;6.23;;;;;;;;;;5024923;28;20033;-76
2022/12/24 13:17:01;;;;;;;24.93;5.47;;;;;;;;;;5014858;28;20030;-76
2022/12/24 13:19:41;;;;;;;27.37;5.50;;;;;;;;;;5014073;28;20063;-77
2022/12/24 13:22:16;;;;;;;26.77;4.77;;;;;;;;;;5031229;28;20096;-77
2022/12/24 13:24:47;;;;;;;32.03;5.13;;;;;;;;;;5030257;28;20060;-77
2022/12/24 13:27:18;;;;;;;26.00;4.90;;;;;;;;;;5027030;28;20024;-76
2022/12/24 13:29:57;;;;;;;22.73;4.73;;;;;;;;;;5028458;28;20392;-77
2022/12/24 13:32:37;;;;;;;26.33;5.17;;;;;;;;;;5018074;28;20568;-77
2022/12/24 13:35:23;;;;;;;20.00;4.70;;;;;;;;;;5020508;28;20064;-77
2022/12/24 13:37:52;;;;;;;24.93;5.43;;;;;;;;;;5029004;28;20025;-77
2022/12/24 13:40:27;;;;;;;21.10;4.60;;;;;;;;;;5022190;28;20037;-76
2022/12/24 13:43:00;;;;;;;30.37;4.47;;;;;;;;;;5032123;28;20033;-77
2022/12/24 13:45:32;;;;;;;29.40;6.25;;;;;;;;;;5037928;28;20068;-77
2022/12/24 13:48:00;;;;;;;30.00;5.00;;;;;;;;;;5034325;28;20060;-76
2022/12/24 13:50:36;;;;;;;20.67;4.73;;;;;;;;;;5020773;28;20026;-77
2022/12/24 13:53:02;;;;;;;19.60;4.27;;;;;;;;;;5019989;28;20022;-77
2022/12/24 13:55:28;;;;;;;22.73;4.93;;;;;;;;;;5020143;28;20425;-77
2022/12/24 13:57:54;;;;;;;21.83;4.53;;;;;;;;;;5019868;28;20026;-77
2022/12/24 14:00:20;;;;;;;24.03;4.77;;;;;;;;;;5037095;28;20044;-77
2022/12/24 14:02:58;;;;;;;21.50;4.87;;;;;;;;;;5020631;28;20311;-77
2022/12/24 14:05:31;;;;;;;27.23;5.87;;;;;;;;;;5008649;28;20334;-77
2022/12/24 14:07:57;;;;;;;35.15;5.35;;;;;;;;;;5019438;28;20029;-77
2022/12/24 14:10:25;;;;;;;27.07;4.93;;;;;;;;;;5018937;28;20026;-77
2022/12/24 14:12:52;;;;;;;24.73;5.37;;;;;;;;;;5020367;28;20040;-77
2022/12/24 14:15:41;;;;;;;19.17;4.23;;;;;;;;;;5018937;28;20094;-77
2022/12/24 14:18:10;;;;;;;25.10;4.77;;;;;;;;;;5035781;28;20041;-77
2022/12/24 14:20:37;;;;;;;27.43;5.13;;;;;;;;;;5012693;28;20128;-77
2022/12/24 14:23:04;;;;;;;20.20;5.33;;;;;;;;;;5023005;28;20060;-76
2022/12/24 14:25:31;;;;;;;20.30;4.43;;;;;;;;;;5037313;28;20025;-77
2022/12/24 14:28:12;;;;;;;22.83;4.10;;;;;;;;;;5019666;28;20021;-77
2022/12/24 14:30:38;;;;;;;23.63;4.83;;;;;;;;;;5022164;28;20063;-77
2022/12/24 14:33:04;;;;;;;31.03;8.53;;;;;;;;;;5041838;28;20087;-77
2022/12/24 14:35:35;;;;;;;25.10;6.03;;;;;;;;;;5029279;28;20398;-76
2022/12/24 14:38:06;;;;;;;22.20;6.10;;;;;;;;;;5027631;28;20159;-77
2022/12/24 14:40:34;;;;;;;26.73;4.50;;;;;;;;;;5033693;28;20061;-77
2022/12/24 14:43:29;;;;;;;44.57;5.17;;;;;;;;;;5046146;28;20033;-77
2022/12/24 14:45:58;;;;;;;17.73;4.00;;;;;;;;;;4996165;28;20452;-77
2022/12/24 14:48:34;;;;;;;22.07;4.63;;;;;;;;;;5019105;28;20524;-77
2022/12/24 14:51:00;;;;;;;27.27;4.63;;;;;;;;;;5038436;28;20033;-77